^^
Station Historical Data
Daily Summary for May 15, 2017 Units:  English    Metric   Both
« Previous Day
Next Day »
Daily Weekly Monthly Yearly Custom
  High: Low: Average:
Temperature: 66.1 °F 50.6 °F 58.4 °F
Dew Point: 47.1 °F 42.8 °F 45.2 °F
Humidity: 78% 48% 63%
Wind Speed: 8.0mph 0.0mph 3.5mph
Wind Gust: 20.0mph - -
Wind- - South
Pressure: 29.93 in 29.62 in -
Precipitation: 0.00 in    
Historical Graphs
 
 
Tabular Data for May 15, 2017
Time Temperature Dew Point Pressure Wind Wind Speed Wind Gust Humidity Rainfall Rate (Hourly) Conditions
00:00 51.9 °F 42.8 °F 29.64 in NE 1.0 mph 8.0 mph 71% 0.00 in RA
00:15 51.6 °F 42.9 °F 29.64 in WNW 1.0 mph 10.0 mph 72% 0.00 in CLR
00:30 51.3 °F 42.9 °F 29.64 in WSW 2.0 mph 8.0 mph 73% 0.00 in CLR
00:45 51.0 °F 43.0 °F 29.64 in WSW 2.0 mph 12.0 mph 74% 0.00 in CLR
01:00 50.7 °F 43.1 °F 29.64 in East 2.0 mph 9.0 mph 75% 0.00 in CLR
02:15 50.6 °F 43.7 °F 29.63 in Calm   13.0 mph 77% 0.00 in CLR
02:30 50.8 °F 43.5 °F 29.63 in SW 2.0 mph 10.0 mph 76% 0.00 in CLR
02:45 51.1 °F 44.1 °F 29.63 in East 1.0 mph 7.0 mph 77% 0.00 in CLR
03:00 51.5 °F 44.2 °F 29.62 in SSW 5.0 mph 15.0 mph 76% 0.00 in CLR
03:15 51.7 °F 44.1 °F 29.62 in ESE 3.0 mph 12.0 mph 75% 0.00 in CLR
03:30 51.8 °F 44.1 °F 29.62 in SSW 2.0 mph 12.0 mph 75% 0.00 in CLR
03:45 52.1 °F 44.4 °F 29.62 in SW 5.0 mph 12.0 mph 75% 0.00 in CLR
04:00 52.2 °F 44.5 °F 29.62 in SE 3.0 mph 10.0 mph 75% 0.00 in CLR
04:15 52.4 °F 45.1 °F 29.62 in East 2.0 mph 13.0 mph 76% 0.00 in CLR
04:30 52.7 °F 45.3 °F 29.62 in East 5.0 mph 15.0 mph 76% 0.00 in CLR
04:45 52.8 °F 45.1 °F 29.63 in ENE 3.0 mph 13.0 mph 75% 0.00 in CLR
05:00 52.9 °F 45.5 °F 29.63 in South 3.0 mph 9.0 mph 76% 0.00 in CLR
05:15 52.9 °F 45.5 °F 29.63 in ESE 2.0 mph 7.0 mph 76% 0.00 in CLR
05:30 52.8 °F 45.8 °F 29.64 in SE 2.0 mph 8.0 mph 77% 0.00 in CLR
05:45 52.9 °F 45.9 °F 29.65 in Calm   13.0 mph 77% 0.00 in CLR
06:00 53.0 °F 46.0 °F 29.65 in South 2.0 mph 7.0 mph 77% 0.00 in CLR
06:15 53.2 °F 46.2 °F 29.66 in NW 1.0 mph 12.0 mph 77% 0.00 in SCT
06:30 53.3 °F 46.3 °F 29.66 in SE 1.0 mph 13.0 mph 77% 0.00 in SCT
06:45 53.5 °F 46.5 °F 29.66 in South 2.0 mph 15.0 mph 77% 0.00 in SCT
07:00 53.4 °F 46.7 °F 29.66 in West 5.0 mph 16.0 mph 78% 0.00 in SCT
07:15 53.6 °F 46.9 °F 29.67 in ENE 3.0 mph 12.0 mph 78% 0.00 in SCT
07:30 54.1 °F 47.1 °F 29.67 in North 5.0 mph 10.0 mph 77% 0.00 in SCT
07:45 54.6 °F 46.8 °F 29.67 in NE 3.0 mph 17.0 mph 75% 0.00 in SCT
08:00 55.2 °F 46.0 °F 29.68 in NE 6.0 mph 17.0 mph 71% 0.00 in SCT
08:15 55.6 °F 45.6 °F 29.69 in NE 3.0 mph 14.0 mph 69% 0.00 in BKN
08:30 55.5 °F 45.5 °F 29.70 in NW 7.0 mph 14.0 mph 69% 0.00 in BKN
08:45 55.7 °F 45.7 °F 29.70 in NE 5.0 mph 16.0 mph 69% 0.00 in BKN
09:00 56.1 °F 45.3 °F 29.70 in NW 1.0 mph 15.0 mph 67% 0.00 in BKN
09:15 56.0 °F 46.0 °F 29.70 in ESE 6.0 mph 12.0 mph 69% 0.00 in BKN
09:30 56.3 °F 45.9 °F 29.70 in SE 6.0 mph 17.0 mph 68% 0.00 in BKN
09:45 56.6 °F 45.8 °F 29.71 in ESE 5.0 mph 14.0 mph 67% 0.00 in BKN
10:00 57.7 °F 45.6 °F 29.71 in North 3.0 mph 14.0 mph 64% 0.00 in BKN
10:15 58.5 °F 45.5 °F 29.71 in WSW 6.0 mph 17.0 mph 62% 0.00 in BKN
10:30 58.1 °F 44.3 °F 29.72 in North 7.0 mph 20.0 mph 60% 0.00 in BKN
10:45 59.3 °F 45.4 °F 29.72 in NNE 3.0 mph 12.0 mph 60% 0.00 in BKN
11:00 60.0 °F 44.7 °F 29.72 in NNW 7.0 mph 16.0 mph 57% 0.00 in BKN
11:15 60.5 °F 44.7 °F 29.72 in NW 5.0 mph 17.0 mph 56% 0.00 in BKN
11:30 60.1 °F 45.3 °F 29.72 in ESE 3.0 mph 13.0 mph 58% 0.00 in BKN
11:45 61.2 °F 45.4 °F 29.72 in North 8.0 mph 17.0 mph 56% 0.00 in BKN
12:00 60.7 °F 44.9 °F 29.73 in NNW 7.0 mph 20.0 mph 56% 0.00 in BKN
12:15 60.7 °F 44.9 °F 29.73 in NNE 3.0 mph 12.0 mph 56% 0.00 in BKN
12:45 60.3 °F 45.0 °F 29.73 in NE 5.0 mph 15.0 mph 57% 0.00 in BKN
13:00 60.3 °F 44.5 °F 29.73 in NNE 8.0 mph 17.0 mph 56% 0.00 in BKN
13:15 61.2 °F 44.9 °F 29.74 in NNW 8.0 mph 17.0 mph 55% 0.00 in BKN
13:30 60.5 °F 45.2 °F 29.74 in NNW 6.0 mph 20.0 mph 57% 0.00 in BKN
13:45 60.4 °F 45.5 °F 29.74 in NNW 2.0 mph 13.0 mph 58% 0.00 in BKN
14:00 60.7 °F 45.4 °F 29.75 in North 2.0 mph 15.0 mph 57% 0.00 in BKN
14:15 61.7 °F 45.4 °F 29.74 in NNE 7.0 mph 20.0 mph 55% 0.00 in BKN
14:30 62.4 °F 46.0 °F 29.75 in East 5.0 mph 20.0 mph 55% 0.00 in BKN
14:45 63.3 °F 46.4 °F 29.75 in North 1.0 mph 18.0 mph 54% 0.00 in BKN
15:00 62.8 °F 45.4 °F 29.75 in NNE 5.0 mph 16.0 mph 53% 0.00 in BKN
15:15 63.0 °F 45.6 °F 29.75 in NNW 6.0 mph 16.0 mph 53% 0.00 in BKN
15:30 64.0 °F 46.0 °F 29.75 in NW 5.0 mph 16.0 mph 52% 0.00 in BKN
15:45 63.6 °F 45.7 °F 29.76 in North 6.0 mph 13.0 mph 52% 0.00 in BKN
16:00 63.3 °F 45.3 °F 29.76 in NNW 6.0 mph 13.0 mph 52% 0.00 in BKN
16:15 64.1 °F 45.6 °F 29.76 in NNW 7.0 mph 15.0 mph 51% 0.00 in BKN
16:30 64.4 °F 45.3 °F 29.76 in North 3.0 mph 15.0 mph 50% 0.00 in BKN
16:45 64.4 °F 45.8 °F 29.76 in North 2.0 mph 12.0 mph 51% 0.00 in BKN
17:00 64.5 °F 46.0 °F 29.77 in NE 3.0 mph 13.0 mph 51% 0.00 in BKN
17:15 64.7 °F 45.6 °F 29.77 in NNE 3.0 mph 13.0 mph 50% 0.00 in BKN
17:30 65.0 °F 45.9 °F 29.77 in North 6.0 mph 12.0 mph 50% 0.00 in BKN
17:45 65.3 °F 45.7 °F 29.78 in NNW 5.0 mph 12.0 mph 49% 0.00 in BKN
18:00 65.6 °F 45.4 °F 29.79 in NNW 6.0 mph 15.0 mph 48% 0.00 in BKN
18:15 65.8 °F 46.1 °F 29.80 in North 2.0 mph 17.0 mph 49% 0.00 in SCT
18:30 66.1 °F 45.8 °F 29.81 in NNW 5.0 mph 12.0 mph 48% 0.00 in SCT
18:45 65.3 °F 45.1 °F 29.81 in NE 6.0 mph 20.0 mph 48% 0.00 in SCT
19:00 65.1 °F 44.9 °F 29.82 in ENE 2.0 mph 18.0 mph 48% 0.00 in SCT
19:15 64.7 °F 45.1 °F 29.83 in West 2.0 mph 13.0 mph 49% 0.00 in SCT
19:30 63.6 °F 45.1 °F 29.84 in NNE 3.0 mph 12.0 mph 51% 0.00 in SCT
19:45 62.8 °F 45.4 °F 29.85 in NW 5.0 mph 12.0 mph 53% 0.00 in SCT
20:00 62.3 °F 44.4 °F 29.86 in North 2.0 mph 12.0 mph 52% 0.00 in SCT
20:15 61.8 °F 45.0 °F 29.87 in North 6.0 mph 17.0 mph 54% 0.00 in FEW
20:30 61.4 °F 44.6 °F 29.87 in Calm   10.0 mph 54% 0.00 in FEW
20:45 61.2 °F 44.9 °F 29.88 in NNW 5.0 mph 12.0 mph 55% 0.00 in FEW
21:00 61.0 °F 45.2 °F 29.89 in North 3.0 mph 13.0 mph 56% 0.00 in FEW
21:15 60.4 °F 45.1 °F 29.89 in East 1.0 mph 8.0 mph 57% 0.00 in CLR
21:30 60.5 °F 45.2 °F 29.90 in NE 1.0 mph 12.0 mph 57% 0.00 in CLR
21:45 60.3 °F 45.4 °F 29.90 in NNE 2.0 mph 9.0 mph 58% 0.00 in CLR
22:00 60.2 °F 44.9 °F 29.90 in NNW 2.0 mph 8.0 mph 57% 0.00 in CLR
22:15 60.0 °F 45.2 °F 29.90 in North 2.0 mph 7.0 mph 58% 0.00 in CLR
22:30 59.6 °F 45.2 °F 29.91 in North 1.0 mph 6.0 mph 59% 0.00 in CLR
22:45 59.3 °F 45.4 °F 29.90 in North 2.0 mph 9.0 mph 60% 0.00 in CLR
23:00 59.0 °F 45.6 °F 29.91 in NE 2.0 mph 6.0 mph 61% 0.00 in CLR
23:15 58.9 °F 45.9 °F 29.92 in Calm   5.0 mph 62% 0.00 in CLR
23:30 58.4 °F 45.8 °F 29.92 in Calm   3.0 mph 63% 0.00 in CLR
23:45 58.2 °F 46.1 °F 29.93 in NE 1.0 mph 7.0 mph 64% 0.00 in CLR
TarryTown NY Weather
Compliments of Weather Underground - 1.5 mb